Wetterdaten: Woche 01.08.16 - 07.08.16 (KW31)
Datum Zeit Temp. Aussen Temp. o. S. +5cm Feuchte Auss BlattFeu 1 Luftdruck Regen Sonnenschein Regendauer Solar Windben Empfang
01.08.2016 00:00 13,3 C 11,7 C 10,6 C 87 % 3 lf 1017,6 hPa 0,0 l/m 0,00 h 0,00 h 5 W/m 2,4 km/h (1 Bft) 95,81 %
01.08.2016 01:00 12,6 C 11,7 C 10,3 C 88 % 10 lf 1017,6 hPa 0,0 l/m 0,00 h 0,00 h 5 W/m 2,2 km/h (1 Bft) 96,44 %
01.08.2016 02:00 12,3 C 11,8 C 10,5 C 91 % 9 lf 1017,8 hPa 0,0 l/m 0,00 h 0,00 h 5 W/m 5,0 km/h (1 Bft) 96,58 %
01.08.2016 03:00 12,1 C 11,9 C 10,5 C 93 % 8 lf 1018,1 hPa 0,0 l/m 0,00 h 0,00 h 5 W/m 3,9 km/h (1 Bft) 93,87 %
01.08.2016 04:00 11,9 C 11,4 C 10,0 C 93 % 14 lf 1017,8 hPa 0,0 l/m 0,00 h 0,00 h 5 W/m 3,4 km/h (1 Bft) 96,85 %
01.08.2016 05:00 11,8 C 11,6 C 10,1 C 94 % 14 lf 1017,9 hPa 0,0 l/m 0,00 h 0,00 h 6 W/m 6,0 km/h (2 Bft) 97,72 %
01.08.2016 06:00 12,1 C 12,5 C 11,5 C 95 % 3 lf 1017,9 hPa 0,0 l/m 0,00 h 0,00 h 21 W/m 6,0 km/h (2 Bft) 95,25 %
01.08.2016 07:00 12,8 C 14,2 C 13,0 C 95 % 1 lf 1018,1 hPa 0,0 l/m 0,17 h 0,00 h 91 W/m 6,8 km/h (2 Bft) 94,38 %
01.08.2016 08:00 14,1 C 16,1 C 15,0 C 93 % 0 lf 1018,3 hPa 0,0 l/m 0,10 h 0,00 h 138 W/m 8,4 km/h (2 Bft) 97,86 %
01.08.2016 09:00 15,5 C 17,7 C 16,4 C 86 % 0 lf 1018,3 hPa 0,0 l/m 0,07 h 0,00 h 192 W/m 9,4 km/h (2 Bft) 93,73 %
01.08.2016 10:00 17,1 C 21,1 C 19,7 C 81 % 0 lf 1018,3 hPa 0,0 l/m 0,70 h 0,00 h 366 W/m 8,4 km/h (2 Bft) 96,01 %
01.08.2016 11:00 19,6 C 25,8 C 23,1 C 72 % 0 lf 1018,2 hPa 0,0 l/m 0,80 h 0,00 h 557 W/m 12,4 km/h (3 Bft) 96,15 %
01.08.2016 12:00 22,1 C 29,0 C 25,1 C 62 % 0 lf 1018,0 hPa 0,0 l/m 0,97 h 0,00 h 763 W/m 19,6 km/h (3 Bft) 96,92 %
01.08.2016 13:00 23,3 C 29,9 C 23,7 C 58 % 0 lf 1017,8 hPa 0,0 l/m 0,93 h 0,00 h 864 W/m 21,7 km/h (4 Bft) 95,59 %
01.08.2016 14:00 24,1 C 30,5 C 28,7 C 54 % 0 lf 1017,5 hPa 0,0 l/m 0,93 h 0,00 h 870 W/m 24,0 km/h (4 Bft) 95,51 %
01.08.2016 15:00 24,0 C 27,8 C 28,2 C 54 % 0 lf 1017,2 hPa 0,0 l/m 0,67 h 0,00 h 569 W/m 23,8 km/h (4 Bft) 98,15 %
01.08.2016 16:00 22,9 C 25,4 C 23,9 C 61 % 0 lf 1017,3 hPa 0,0 l/m 0,57 h 0,00 h 377 W/m 19,5 km/h (3 Bft) 94,24 %
01.08.2016 17:00 22,0 C 26,2 C 22,9 C 66 % 0 lf 1017,3 hPa 0,0 l/m 0,97 h 0,00 h 457 W/m 15,3 km/h (3 Bft) 96,23 %
01.08.2016 18:00 22,2 C 23,1 C 21,8 C 65 % 0 lf 1017,2 hPa 0,0 l/m 0,17 h 0,00 h 174 W/m 13,4 km/h (3 Bft) 97,23 %
01.08.2016 19:00 21,2 C 21,4 C 20,1 C 66 % 0 lf 1017,3 hPa 0,0 l/m 0,00 h 0,00 h 93 W/m 11,7 km/h (2 Bft) 94,81 %
01.08.2016 20:00 20,3 C 19,8 C 18,5 C 70 % 0 lf 1017,2 hPa 0,0 l/m 0,00 h 0,00 h 39 W/m 6,0 km/h (2 Bft) 94,31 %
01.08.2016 21:00 19,4 C 18,0 C 16,6 C 74 % 0 lf 1017,1 hPa 0,0 l/m 0,03 h 0,00 h 9 W/m 0,1 km/h (0 Bft) 98,86 %
01.08.2016 22:00 18,4 C 17,2 C 16,1 C 77 % 0 lf 1017,2 hPa 0,0 l/m 0,00 h 0,00 h 5 W/m 1,0 km/h (0 Bft) 94,73 %
01.08.2016 23:00 17,8 C 17,0 C 15,8 C 78 % 1 lf 1017,0 hPa 0,0 l/m 0,00 h 0,10 h 5 W/m 1,1 km/h (1 Bft) 96,96 %
02.08.2016 00:00 17,2 C 15,2 C 14,2 C 83 % 12 lf 1017,1 hPa 1,2 l/m 0,00 h 0,87 h 5 W/m 4,9 km/h (1 Bft) 95,64 %
02.08.2016 01:00 15,6 C 13,8 C 12,8 C 88 % 15 lf 1017,2 hPa 1,2 l/m 0,00 h 0,97 h 5 W/m 6,8 km/h (2 Bft) 94,80 %
02.08.2016 02:00 14,5 C 13,3 C 12,7 C 90 % 15 lf 1016,7 hPa 0,4 l/m 0,00 h 0,90 h 5 W/m 2,7 km/h (1 Bft) 97,65 %
02.08.2016 03:00 14,2 C 13,8 C 12,8 C 93 % 15 lf 1016,4 hPa 0,2 l/m 0,00 h 1,00 h 5 W/m 2,0 km/h (1 Bft) 96,44 %
02.08.2016 04:00 14,2 C 13,6 C 12,8 C 94 % 15 lf 1015,9 hPa 0,6 l/m 0,00 h 0,97 h 5 W/m 2,6 km/h (1 Bft) 94,30 %
02.08.2016 05:00 13,8 C 13,1 C 12,2 C 95 % 15 lf 1015,2 hPa 0,0 l/m 0,00 h 0,80 h 5 W/m 6,5 km/h (2 Bft) 98,01 %
02.08.2016 06:00 13,4 C 12,8 C 12,2 C 95 % 15 lf 1014,7 hPa 0,2 l/m 0,00 h 0,87 h 11 W/m 7,9 km/h (2 Bft) 96,94 %
02.08.2016 07:00 13,4 C 13,2 C 12,4 C 96 % 15 lf 1014,5 hPa 0,4 l/m 0,07 h 0,90 h 55 W/m 8,8 km/h (2 Bft) 93,60 %
02.08.2016 08:00 13,9 C 13,9 C 13,0 C 97 % 15 lf 1014,4 hPa 1,4 l/m 0,00 h 0,83 h 52 W/m 8,7 km/h (2 Bft) 97,72 %
02.08.2016 09:00 14,5 C 14,6 C 13,9 C 98 % 15 lf 1014,0 hPa 1,6 l/m 0,00 h 0,97 h 106 W/m 9,2 km/h (2 Bft) 95,45 %
02.08.2016 10:00 15,3 C 15,5 C 14,9 C 98 % 15 lf 1013,6 hPa 0,4 l/m 0,07 h 0,60 h 154 W/m 13,3 km/h (3 Bft) 97,08 %
02.08.2016 11:00 15,4 C 15,3 C 14,8 C 98 % 15 lf 1013,3 hPa 0,6 l/m 0,00 h 0,43 h 144 W/m 16,4 km/h (3 Bft) 95,30 %
02.08.2016 12:00 15,7 C 15,9 C 15,5 C 98 % 15 lf 1013,0 hPa 0,4 l/m 0,00 h 0,53 h 198 W/m 13,9 km/h (3 Bft) 95,73 %
02.08.2016 13:00 16,6 C 16,7 C 16,2 C 99 % 15 lf 1012,8 hPa 0,8 l/m 0,00 h 0,43 h 176 W/m 12,1 km/h (2 Bft) 95,95 %
02.08.2016 14:00 17,0 C 17,0 C 16,4 C 99 % 15 lf 1012,8 hPa 1,2 l/m 0,00 h 1,00 h 163 W/m 16,0 km/h (3 Bft) 98,01 %
02.08.2016 15:00 17,5 C 17,8 C 17,1 C 98 % 15 lf 1012,6 hPa 0,0 l/m 0,00 h 0,50 h 209 W/m 18,7 km/h (3 Bft) 93,17 %
02.08.2016 16:00 18,1 C 18,1 C 17,3 C 98 % 15 lf 1012,5 hPa 0,2 l/m 0,00 h 0,67 h 193 W/m 18,1 km/h (3 Bft) 97,51 %
02.08.2016 17:00 18,0 C 17,8 C 17,0 C 98 % 15 lf 1012,2 hPa 0,2 l/m 0,00 h 0,20 h 143 W/m 20,1 km/h (4 Bft) 96,73 %
02.08.2016 18:00 18,0 C 17,8 C 16,8 C 97 % 15 lf 1012,1 hPa 0,2 l/m 0,00 h 0,50 h 104 W/m 20,1 km/h (4 Bft) 94,18 %
02.08.2016 19:00 17,9 C 17,4 C 16,6 C 98 % 15 lf 1012,0 hPa 0,2 l/m 0,00 h 1,00 h 53 W/m 18,6 km/h (3 Bft) 95,20 %
02.08.2016 20:00 17,7 C 17,2 C 16,2 C 98 % 15 lf 1012,0 hPa 0,2 l/m 0,00 h 0,83 h 27 W/m 19,4 km/h (3 Bft) 97,87 %
02.08.2016 21:00 17,7 C 17,2 C 16,1 C 98 % 15 lf 1012,1 hPa 0,2 l/m 0,00 h 0,43 h 7 W/m 16,6 km/h (3 Bft) 95,52 %
02.08.2016 22:00 17,6 C 17,2 C 16,1 C 98 % 15 lf 1012,2 hPa 0,2 l/m 0,00 h 0,17 h 5 W/m 21,7 km/h (4 Bft) 95,52 %
02.08.2016 23:00 17,6 C 17,2 C 16,1 C 99 % 15 lf 1012,0 hPa 0,2 l/m 0,00 h 0,30 h 5 W/m 19,2 km/h (3 Bft) 96,23 %
03.08.2016 00:00 17,6 C 17,2 C 16,1 C 99 % 15 lf 1012,0 hPa 0,2 l/m 0,00 h 0,23 h 5 W/m 22,3 km/h (4 Bft) 97,13 %
03.08.2016 01:00 17,7 C 17,2 C 16,1 C 99 % 15 lf 1011,9 hPa 0,0 l/m 0,00 h 0,00 h 5 W/m 23,1 km/h (4 Bft) 94,95 %
03.08.2016 02:00 17,7 C 17,2 C 16,1 C 99 % 15 lf 1011,7 hPa 0,0 l/m 0,00 h 0,07 h 5 W/m 20,7 km/h (4 Bft) 95,74 %
03.08.2016 03:00 17,6 C 17,2 C 16,1 C 99 % 15 lf 1011,4 hPa 0,0 l/m 0,00 h 0,00 h 5 W/m 20,5 km/h (4 Bft) 96,52 %
03.08.2016 04:00 17,6 C 17,2 C 16,1 C 99 % 15 lf 1011,1 hPa 0,0 l/m 0,00 h 0,20 h 5 W/m 19,7 km/h (3 Bft) 97,11 %
03.08.2016 05:00 17,6 C 17,2 C 16,1 C 99 % 15 lf 1010,6 hPa 0,2 l/m 0,00 h 0,10 h 5 W/m 21,3 km/h (4 Bft) 93,18 %
03.08.2016 06:00 17,7 C 17,2 C 16,1 C 99 % 15 lf 1010,5 hPa 0,0 l/m 0,00 h 0,17 h 11 W/m 20,0 km/h (4 Bft) 97,90 %
03.08.2016 07:00 17,8 C 17,8 C 16,6 C 99 % 15 lf 1010,3 hPa 0,0 l/m 0,00 h 0,00 h 38 W/m 22,0 km/h (4 Bft) 96,12 %
03.08.2016 08:00 18,0 C 18,1 C 16,7 C 99 % 14 lf 1010,1 hPa 0,0 l/m 0,00 h 0,60 h 65 W/m 22,1 km/h (4 Bft) 95,85 %
03.08.2016 09:00 18,3 C 18,9 C 17,2 C 99 % 5 lf 1010,3 hPa 0,0 l/m 0,00 h 0,20 h 101 W/m 26,8 km/h (4 Bft) 94,83 %
03.08.2016 10:00 18,7 C 19,6 C 17,9 C 97 % 2 lf 1010,3 hPa 0,0 l/m 0,00 h 0,03 h 132 W/m 25,0 km/h (4 Bft) 96,00 %
03.08.2016 11:00 19,4 C 20,7 C 19,0 C 95 % 1 lf 1010,2 hPa 0,0 l/m 0,00 h 0,20 h 192 W/m 23,8 km/h (4 Bft) 96,06 %
03.08.2016 12:00 19,4 C 18,8 C 17,5 C 93 % 11 lf 1010,4 hPa 0,4 l/m 0,00 h 0,93 h 79 W/m 18,1 km/h (3 Bft) 96,53 %
03.08.2016 13:00 19,1 C 18,3 C 17,4 C 95 % 15 lf 1010,5 hPa 0,8 l/m 0,00 h 1,00 h 104 W/m 20,1 km/h (4 Bft) 95,11 %
03.08.2016 14:00 19,0 C 18,6 C 17,6 C 96 % 15 lf 1010,5 hPa 0,4 l/m 0,00 h 0,90 h 179 W/m 27,1 km/h (4 Bft) 97,10 %
03.08.2016 15:00 19,2 C 18,7 C 17,9 C 96 % 15 lf 1010,5 hPa 0,4 l/m 0,00 h 1,00 h 158 W/m 22,9 km/h (4 Bft) 96,60 %
03.08.2016 16:00 19,2 C 18,5 C 17,7 C 96 % 15 lf 1010,5 hPa 0,8 l/m 0,00 h 0,93 h 105 W/m 20,3 km/h (4 Bft) 94,13 %
03.08.2016 17:00 19,0 C 18,5 C 17,6 C 97 % 15 lf 1010,4 hPa 0,6 l/m 0,00 h 0,80 h 100 W/m 18,7 km/h (3 Bft) 96,82 %
03.08.2016 18:00 19,2 C 18,9 C 17,9 C 97 % 15 lf 1010,1 hPa 0,0 l/m 0,00 h 0,17 h 90 W/m 13,7 km/h (3 Bft) 97,19 %
03.08.2016 19:00 19,2 C 18,8 C 17,9 C 97 % 14 lf 1009,9 hPa 0,4 l/m 0,00 h 0,50 h 43 W/m 15,8 km/h (3 Bft) 93,45 %
03.08.2016 20:00 19,2 C 18,3 C 17,2 C 97 % 15 lf 1009,7 hPa 0,4 l/m 0,10 h 0,27 h 26 W/m 13,7 km/h (3 Bft) 97,09 %
03.08.2016 21:00 19,0 C 18,3 C 17,2 C 97 % 15 lf 1009,3 hPa 0,0 l/m 0,00 h 0,10 h 7 W/m 14,8 km/h (3 Bft) 96,73 %
03.08.2016 22:00 18,8 C 18,2 C 17,1 C 97 % 15 lf 1009,7 hPa 3,6 l/m 0,00 h 0,97 h 5 W/m 18,0 km/h (3 Bft) 94,97 %
03.08.2016 23:00 18,2 C 17,6 C 16,5 C 98 % 15 lf 1009,8 hPa 0,8 l/m 0,00 h 0,53 h 5 W/m 19,6 km/h (3 Bft) 95,43 %
04.08.2016 00:00 17,5 C 16,7 C 15,9 C 98 % 15 lf 1009,9 hPa 0,0 l/m 0,00 h 0,12 h 5 W/m 13,7 km/h (3 Bft) 97,03 %
04.08.2016 01:00 17,1 C 16,6 C 15,3 C 98 % 15 lf 1010,0 hPa 0,0 l/m 0,00 h 0,00 h 5 W/m 15,3 km/h (3 Bft) 95,15 %
04.08.2016 02:00 16,8 C 16,1 C 15,0 C 98 % 15 lf 1010,0 hPa 0,0 l/m 0,00 h 0,03 h 5 W/m 15,1 km/h (3 Bft) 97,15 %
04.08.2016 03:00 16,6 C 16,0 C 14,9 C 98 % 15 lf 1009,9 hPa 0,0 l/m 0,00 h 0,00 h 5 W/m 13,1 km/h (3 Bft) 94,91 %
04.08.2016 04:00 16,0 C 15,6 C 14,4 C 97 % 15 lf 1009,8 hPa 0,0 l/m 0,00 h 0,00 h 5 W/m 15,5 km/h (3 Bft) 96,39 %
04.08.2016 05:00 15,9 C 15,8 C 14,2 C 95 % 5 lf 1009,9 hPa 0,0 l/m 0,00 h 0,00 h 5 W/m 16,4 km/h (3 Bft) 98,36 %
04.08.2016 06:00 15,7 C 15,8 C 13,9 C 93 % 2 lf 1009,9 hPa 0,0 l/m 0,70 h 0,00 h 34 W/m 14,0 km/h (3 Bft) 94,15 %
04.08.2016 07:00 16,0 C 16,6 C 14,9 C 92 % 1 lf 1010,0 hPa 0,0 l/m 0,67 h 0,00 h 103 W/m 18,9 km/h (3 Bft) 95,88 %
04.08.2016 08:00 16,3 C 17,2 C 15,8 C 90 % 1 lf 1010,2 hPa 0,0 l/m 0,10 h 0,00 h 139 W/m 15,6 km/h (3 Bft) 97,58 %
04.08.2016 09:00 16,9 C 18,5 C 17,1 C 89 % 0 lf 1010,7 hPa 0,0 l/m 0,23 h 0,00 h 225 W/m 18,9 km/h (3 Bft) 96,30 %
04.08.2016 10:00 17,7 C 19,7 C 18,4 C 85 % 0 lf 1010,9 hPa 0,0 l/m 0,17 h 0,00 h 283 W/m 21,1 km/h (4 Bft) 94,37 %
04.08.2016 11:00 18,3 C 20,3 C 19,2 C 84 % 0 lf 1010,9 hPa 0,0 l/m 0,33 h 0,00 h 301 W/m 17,8 km/h (3 Bft) 98,36 %
04.08.2016 12:00 18,4 C 19,7 C 18,7 C 81 % 0 lf 1011,1 hPa 0,0 l/m 0,00 h 0,00 h 265 W/m 20,3 km/h (4 Bft) 95,06 %
04.08.2016 13:00 18,4 C 19,5 C 18,6 C 82 % 0 lf 1011,1 hPa 0,0 l/m 0,00 h 0,00 h 217 W/m 18,1 km/h (3 Bft) 96,25 %
04.08.2016 14:00 18,5 C 20,6 C 19,5 C 81 % 0 lf 1011,1 hPa 0,0 l/m 0,23 h 0,00 h 303 W/m 18,6 km/h (3 Bft) 95,62 %
04.08.2016 15:00 19,6 C 22,2 C 21,3 C 78 % 0 lf 1011,1 hPa 0,0 l/m 0,73 h 0,00 h 401 W/m 18,8 km/h (3 Bft) 95,73 %
04.08.2016 16:00 20,0 C 22,8 C 21,3 C 76 % 0 lf 1011,0 hPa 0,0 l/m 1,00 h 0,00 h 391 W/m 18,4 km/h (3 Bft) 95,68 %
04.08.2016 17:00 20,1 C 21,6 C 20,5 C 77 % 0 lf 1011,0 hPa 0,0 l/m 0,53 h 0,00 h 267 W/m 16,4 km/h (3 Bft) 95,44 %
04.08.2016 18:00 20,1 C 21,2 C 19,9 C 77 % 0 lf 1010,7 hPa 0,0 l/m 0,97 h 0,00 h 269 W/m 18,0 km/h (3 Bft) 97,57 %
04.08.2016 19:00 19,7 C 20,0 C 18,6 C 78 % 0 lf 1010,8 hPa 0,0 l/m 0,27 h 0,00 h 118 W/m 11,6 km/h (2 Bft) 96,14 %
04.08.2016 20:00 19,1 C 18,9 C 17,3 C 80 % 0 lf 1011,1 hPa 0,0 l/m 1,00 h 0,00 h 59 W/m 7,7 km/h (2 Bft) 94,59 %
04.08.2016 21:00 18,3 C 17,5 C 15,9 C 82 % 0 lf 1011,5 hPa 0,0 l/m 0,07 h 0,00 h 10 W/m 9,1 km/h (2 Bft) 97,27 %
04.08.2016 22:00 17,4 C 16,8 C 15,2 C 85 % 0 lf 1011,9 hPa 0,0 l/m 0,00 h 0,00 h 5 W/m 10,8 km/h (2 Bft) 96,44 %
04.08.2016 23:00 16,7 C 16,0 C 14,6 C 88 % 1 lf 1012,3 hPa 0,0 l/m 0,00 h 0,00 h 5 W/m 10,8 km/h (2 Bft) 95,55 %
05.08.2016 00:00 16,0 C 15,5 C 13,9 C 90 % 1 lf 1012,5 hPa 0,0 l/m 0,00 h 0,00 h 5 W/m 8,6 km/h (2 Bft) 95,41 %
05.08.2016 01:00 15,5 C 14,8 C 13,4 C 91 % 1 lf 1012,6 hPa 0,0 l/m 0,00 h 0,00 h 5 W/m 8,3 km/h (2 Bft) 96,51 %
05.08.2016 02:00 14,9 C 14,2 C 12,8 C 92 % 2 lf 1012,8 hPa 0,0 l/m 0,00 h 0,00 h 5 W/m 8,6 km/h (2 Bft) 95,86 %
05.08.2016 03:00 14,3 C 13,9 C 12,3 C 93 % 2 lf 1013,0 hPa 0,0 l/m 0,00 h 0,00 h 5 W/m 9,0 km/h (2 Bft) 95,87 %
05.08.2016 04:00 13,9 C 13,5 C 12,2 C 94 % 2 lf 1013,7 hPa 0,0 l/m 0,00 h 0,00 h 5 W/m 11,0 km/h (2 Bft) 95,48 %
05.08.2016 05:00 13,5 C 13,2 C 12,0 C 94 % 2 lf 1014,1 hPa 0,0 l/m 0,00 h 0,00 h 5 W/m 10,2 km/h (2 Bft) 96,94 %
05.08.2016 06:00 13,6 C 13,7 C 12,2 C 94 % 1 lf 1014,4 hPa 0,0 l/m 0,00 h 0,00 h 15 W/m 14,7 km/h (3 Bft) 96,59 %
05.08.2016 07:00 14,2 C 14,9 C 13,8 C 95 % 1 lf 1015,1 hPa 0,0 l/m 0,00 h 0,00 h 60 W/m 15,1 km/h (3 Bft) 96,23 %
05.08.2016 08:00 15,1 C 15,9 C 15,0 C 95 % 1 lf 1015,6 hPa 0,0 l/m 0,00 h 0,00 h 103 W/m 16,5 km/h (3 Bft) 94,45 %
05.08.2016 09:00 15,6 C 17,0 C 15,9 C 95 % 1 lf 1016,3 hPa 0,0 l/m 0,00 h 0,00 h 138 W/m 15,4 km/h (3 Bft) 97,15 %
05.08.2016 10:00 16,6 C 18,3 C 17,6 C 93 % 0 lf 1016,9 hPa 0,0 l/m 0,00 h 0,00 h 193 W/m 15,1 km/h (3 Bft) 95,94 %
05.08.2016 11:00 17,7 C 20,6 C 19,5 C 90 % 0 lf 1017,4 hPa 0,0 l/m 0,37 h 0,00 h 328 W/m 16,9 km/h (3 Bft) 95,87 %
05.08.2016 12:00 19,3 C 24,4 C 21,6 C 86 % 0 lf 1017,8 hPa 0,0 l/m 0,40 h 0,00 h 483 W/m 13,4 km/h (3 Bft) 97,30 %
05.08.2016 13:00 21,9 C 28,6 C 23,7 C 75 % 4 lf 1017,8 hPa 0,0 l/m 0,73 h 0,00 h 666 W/m 15,1 km/h (3 Bft) 94,99 %
05.08.2016 14:00 19,6 C 18,5 C 17,0 C 79 % 15 lf 1018,3 hPa 0,2 l/m 0,00 h 0,43 h 132 W/m 14,4 km/h (3 Bft) 96,65 %
05.08.2016 15:00 18,9 C 23,3 C 21,5 C 87 % 4 lf 1018,6 hPa 0,0 l/m 0,53 h 0,00 h 403 W/m 9,3 km/h (2 Bft) 97,44 %
05.08.2016 16:00 20,7 C 21,1 C 19,3 C 82 % 3 lf 1018,7 hPa 1,2 l/m 0,00 h 0,20 h 98 W/m 9,2 km/h (2 Bft) 95,01 %
05.08.2016 17:00 19,5 C 21,4 C 18,0 C 87 % 12 lf 1018,9 hPa 0,2 l/m 0,50 h 0,07 h 288 W/m 9,4 km/h (2 Bft) 96,65 %
05.08.2016 18:00 20,3 C 21,7 C 18,8 C 83 % 0 lf 1019,1 hPa 0,0 l/m 0,80 h 0,00 h 319 W/m 16,4 km/h (3 Bft) 96,51 %
05.08.2016 19:00 20,3 C 20,8 C 18,8 C 81 % 0 lf 1019,5 hPa 0,0 l/m 0,63 h 0,00 h 161 W/m 13,3 km/h (3 Bft) 95,23 %
05.08.2016 20:00 19,8 C 18,8 C 16,9 C 83 % 0 lf 1020,1 hPa 0,0 l/m 0,07 h 0,00 h 34 W/m 7,6 km/h (2 Bft) 98,08 %
05.08.2016 21:00 18,4 C 16,6 C 14,8 C 87 % 2 lf 1020,7 hPa 0,0 l/m 0,00 h 0,00 h 7 W/m 4,4 km/h (1 Bft) 94,38 %
05.08.2016 22:00 17,2 C 15,9 C 14,4 C 90 % 3 lf 1021,3 hPa 0,0 l/m 0,00 h 0,00 h 5 W/m 5,6 km/h (1 Bft) 95,59 %
05.08.2016 23:00 16,2 C 15,5 C 13,9 C 91 % 1 lf 1021,9 hPa 0,0 l/m 0,00 h 0,00 h 5 W/m 7,6 km/h (2 Bft) 97,43 %
06.08.2016 00:00 15,5 C 14,8 C 13,4 C 90 % 1 lf 1022,3 hPa 0,0 l/m 0,00 h 0,00 h 5 W/m 7,8 km/h (2 Bft) 95,77 %
06.08.2016 01:00 14,8 C 13,9 C 12,3 C 90 % 2 lf 1022,4 hPa 0,0 l/m 0,00 h 0,00 h 5 W/m 6,7 km/h (2 Bft) 94,16 %
06.08.2016 02:00 14,1 C 13,1 C 12,0 C 92 % 3 lf 1022,7 hPa 0,0 l/m 0,00 h 0,00 h 5 W/m 8,5 km/h (2 Bft) 97,50 %
06.08.2016 03:00 13,5 C 12,6 C 11,6 C 94 % 6 lf 1022,8 hPa 0,0 l/m 0,00 h 0,00 h 5 W/m 6,8 km/h (2 Bft) 96,08 %
06.08.2016 04:00 13,1 C 12,2 C 11,3 C 94 % 12 lf 1022,8 hPa 0,0 l/m 0,00 h 0,00 h 5 W/m 3,6 km/h (1 Bft) 96,04 %
06.08.2016 05:00 13,0 C 12,6 C 11,5 C 95 % 15 lf 1022,9 hPa 0,0 l/m 0,00 h 0,00 h 5 W/m 8,8 km/h (2 Bft) 96,30 %
06.08.2016 06:00 13,0 C 13,0 C 11,6 C 96 % 15 lf 1023,0 hPa 0,0 l/m 0,20 h 0,00 h 25 W/m 8,1 km/h (2 Bft) 93,89 %
06.08.2016 07:00 13,3 C 14,0 C 12,3 C 97 % 3 lf 1023,5 hPa 0,0 l/m 0,23 h 0,00 h 94 W/m 8,3 km/h (2 Bft) 98,08 %
06.08.2016 08:00 14,2 C 16,4 C 14,0 C 97 % 1 lf 1023,8 hPa 0,0 l/m 0,97 h 0,00 h 250 W/m 10,8 km/h (2 Bft) 97,36 %
06.08.2016 09:00 16,2 C 19,1 C 17,2 C 93 % 0 lf 1024,2 hPa 0,0 l/m 0,47 h 0,03 h 246 W/m 15,7 km/h (3 Bft) 92,17 %
06.08.2016 10:00 17,8 C 20,6 C 18,9 C 85 % 0 lf 1024,5 hPa 0,0 l/m 0,27 h 0,00 h 281 W/m 15,3 km/h (3 Bft) 96,86 %
06.08.2016 11:00 19,2 C 23,9 C 21,8 C 80 % 0 lf 1024,6 hPa 0,0 l/m 0,93 h 0,00 h 457 W/m 16,9 km/h (3 Bft) 98,86 %
06.08.2016 12:00 20,5 C 23,8 C 22,0 C 76 % 0 lf 1024,8 hPa 0,0 l/m 0,30 h 0,00 h 382 W/m 17,2 km/h (3 Bft) 92,63 %
06.08.2016 13:00 21,9 C 26,3 C 23,5 C 74 % 0 lf 1025,0 hPa 0,0 l/m 0,73 h 0,00 h 468 W/m 21,0 km/h (4 Bft) 97,08 %
06.08.2016 14:00 22,8 C 29,0 C 26,9 C 73 % 0 lf 1025,2 hPa 0,0 l/m 0,80 h 0,00 h 728 W/m 23,2 km/h (4 Bft) 96,53 %
06.08.2016 15:00 23,3 C 29,3 C 29,3 C 70 % 0 lf 1025,4 hPa 0,0 l/m 1,00 h 0,00 h 754 W/m 20,2 km/h (4 Bft) 95,80 %
06.08.2016 16:00 23,6 C 29,0 C 27,5 C 68 % 0 lf 1025,5 hPa 0,0 l/m 1,00 h 0,00 h 653 W/m 20,6 km/h (4 Bft) 96,08 %
06.08.2016 17:00 23,1 C 26,0 C 22,6 C 67 % 0 lf 1025,5 hPa 0,0 l/m 1,00 h 0,00 h 501 W/m 27,1 km/h (4 Bft) 95,59 %
06.08.2016 18:00 22,2 C 23,1 C 21,1 C 71 % 0 lf 1025,8 hPa 0,0 l/m 0,60 h 0,00 h 237 W/m 18,4 km/h (3 Bft) 97,29 %
06.08.2016 19:00 21,8 C 22,6 C 20,5 C 71 % 0 lf 1025,8 hPa 0,0 l/m 0,47 h 0,00 h 131 W/m 16,5 km/h (3 Bft) 93,93 %
06.08.2016 20:00 21,0 C 20,2 C 18,3 C 72 % 0 lf 1026,3 hPa 0,0 l/m 0,97 h 0,00 h 50 W/m 13,3 km/h (3 Bft) 97,22 %
06.08.2016 21:00 19,3 C 17,8 C 15,8 C 75 % 0 lf 1027,1 hPa 0,0 l/m 0,03 h 0,00 h 9 W/m 9,0 km/h (2 Bft) 96,94 %
06.08.2016 22:00 17,6 C 15,6 C 13,6 C 78 % 0 lf 1027,5 hPa 0,0 l/m 0,00 h 0,00 h 5 W/m 3,1 km/h (1 Bft) 94,31 %
06.08.2016 23:00 15,9 C 13,7 C 12,2 C 82 % 1 lf 1027,8 hPa 0,0 l/m 0,00 h 0,00 h 5 W/m 0,2 km/h (0 Bft) 95,30 %
07.08.2016 00:00 14,4 C 12,7 C 11,4 C 86 % 2 lf 1028,0 hPa 0,0 l/m 0,00 h 0,00 h 5 W/m 0,0 km/h (0 Bft) 97,65 %
07.08.2016 01:00 13,3 C 12,0 C 10,7 C 89 % 5 lf 1028,0 hPa 0,0 l/m 0,00 h 0,00 h 0 W/m 0,0 km/h (0 Bft) 95,86 %
07.08.2016 02:00 12,5 C 11,4 C 10,2 C 90 % 14 lf 1027,5 hPa 0,0 l/m 0,00 h 0,00 h 0 W/m 1,1 km/h (1 Bft) 96,01 %
07.08.2016 03:00 11,8 C 10,7 C 9,7 C 91 % 15 lf 1027,3 hPa 0,0 l/m 0,00 h 0,00 h 0 W/m 0,2 km/h (0 Bft) 94,30 %
07.08.2016 04:00 11,3 C 10,5 C 9,4 C 92 % 15 lf 1027,2 hPa 0,0 l/m 0,00 h 0,00 h 0 W/m 1,2 km/h (1 Bft) 97,44 %
07.08.2016 05:00 11,2 C 11,0 C 9,4 C 94 % 15 lf 1027,0 hPa 0,0 l/m 0,00 h 0,00 h 11 W/m 5,9 km/h (2 Bft) 95,87 %
07.08.2016 06:00 11,4 C 11,2 C 9,9 C 96 % 15 lf 1026,9 hPa 0,0 l/m 0,53 h 0,00 h 32 W/m 6,3 km/h (2 Bft) 96,48 %
07.08.2016 07:00 12,4 C 13,5 C 11,5 C 97 % 15 lf 1026,9 hPa 0,0 l/m 1,00 h 0,00 h 159 W/m 9,5 km/h (2 Bft) 95,58 %
07.08.2016 08:00 14,6 C 16,6 C 14,0 C 97 % 4 lf 1026,9 hPa 0,0 l/m 1,00 h 0,00 h 320 W/m 11,3 km/h (2 Bft) 95,59 %
07.08.2016 09:00 18,1 C 26,5 C 16,9 C 87 % 0 lf 1026,9 hPa 0,0 l/m 1,00 h 0,00 h 475 W/m 12,1 km/h (2 Bft) 97,45 %
07.08.2016 10:00 21,6 C 30,0 C 24,9 C 72 % 0 lf 1026,6 hPa 0,0 l/m 1,00 h 0,00 h 613 W/m 20,7 km/h (4 Bft) 95,93 %
07.08.2016 11:00 22,9 C 30,1 C 25,5 C 65 % 0 lf 1026,0 hPa 0,0 l/m 1,00 h 0,00 h 720 W/m 24,1 km/h (4 Bft) 95,23 %
07.08.2016 12:00 24,2 C 31,5 C 26,2 C 62 % 0 lf 1025,4 hPa 0,0 l/m 0,83 h 0,00 h 659 W/m 24,4 km/h (4 Bft) 97,37 %
07.08.2016 13:00 25,7 C 33,0 C 25,9 C 60 % 0 lf 1024,7 hPa 0,0 l/m 1,00 h 0,00 h 892 W/m 24,1 km/h (4 Bft) 94,31 %
07.08.2016 14:00 26,3 C 31,3 C 28,8 C 62 % 0 lf 1024,2 hPa 0,0 l/m 0,93 h 0,00 h 808 W/m 23,6 km/h (4 Bft) 97,23 %
07.08.2016 15:00 25,3 C 27,0 C 25,9 C 68 % 0 lf 1023,9 hPa 0,0 l/m 0,60 h 0,00 h 383 W/m 24,3 km/h (4 Bft) 94,31 %
07.08.2016 16:00 24,8 C 27,0 C 25,5 C 71 % 0 lf 1023,5 hPa 0,0 l/m 0,63 h 0,00 h 336 W/m 20,8 km/h (4 Bft) 96,87 %
07.08.2016 17:00 24,7 C 26,3 C 24,5 C 72 % 0 lf 1022,9 hPa 0,0 l/m 0,63 h 0,00 h 282 W/m 18,8 km/h (3 Bft) 95,73 %
07.08.2016 18:00 24,9 C 26,0 C 24,2 C 71 % 0 lf 1022,3 hPa 0,0 l/m 0,73 h 0,00 h 245 W/m 19,2 km/h (3 Bft) 95,02 %
07.08.2016 19:00 24,5 C 24,9 C 23,0 C 71 % 0 lf 1021,8 hPa 0,0 l/m 0,80 h 0,00 h 151 W/m 19,8 km/h (3 Bft) 97,58 %
07.08.2016 20:00 23,9 C 23,6 C 21,7 C 74 % 0 lf 1021,2 hPa 0,0 l/m 0,70 h 0,00 h 46 W/m 8,9 km/h (2 Bft) 96,30 %
07.08.2016 21:00 23,2 C 22,8 C 20,7 C 76 % 0 lf 1021,1 hPa 0,0 l/m 0,00 h 0,00 h 17 W/m 6,7 km/h (2 Bft) 94,45 %
07.08.2016 22:00 22,7 C 22,4 C 20,4 C 77 % 0 lf 1020,7 hPa 0,0 l/m 0,00 h 0,00 h 0 W/m 7,1 km/h (2 Bft) 97,57 %
07.08.2016 23:00 22,3 C 21,9 C 19,7 C 78 % 0 lf 1020,3 hPa 0,0 l/m 0,00 h 0,00 h 0 W/m 7,9 km/h (2 Bft) 95,23 %
Min-Datum _ 07.08.16 07.08.16 07.08.16 01.08.16 01.08.16 03.08.16 - - - - 01.08.16 01.08.16
_ Min-Zeit 04:48 03:44 03:26 14:56 08:02 21:26 - - - - 00:18 03:08
Minimum _ 11,1 C 10,0 C 9,4 C 52 % 0 lf 1009,1 hPa - - - - 0,0 km/h (0 Bft) 82,61 %
Max-Datum _ 07.08.16 07.08.16 01.08.16 02.08.16 01.08.16 07.08.16 03.08.16 01.08.16 01.08.16 07.08.16 03.08.16 01.08.16
_ Max-Zeit 14:32 13:26 15:04 12:46 04:42 01:16 22:12 07:24 23:32 13:42 13:50 00:06
Maximum _ 26,7 C 36,1 C 33,3 C 99 % 15 lf 1028,2 hPa 3,6 l/m 0,03 h 0,03 h 1212 W/m 41,8 km/h
SW (6 Bft)
100,00 %
Durchschnitt _ 17,8 C 18,6 C 17,0 C 87 % 6 lf 1017,0 hPa #22,8 l/m #40:42 h #27:39 h 168 W/m 13,6 km/h (3 Bft) 96,03 %
© 2016 W. Hausmann